Time;durP1;ratioP1;P1;durP2;ratioP2;P2;SDS_P1;SDS_P2;PMS_P1;PMS_P2;Temp;Humidity;BMP_temperature;BMP_pressure;BME280_temperature;BME280_humidity;BME280_pressure;Samples;Min_cycle;Max_cycle;Signal;HPM_P1;HPM_P2
2021/06/16 00:01:14;;;;;;;8.45;5.82;;;19.80;99.90;;;19.30;76.67;100685.03;5066725;28;20024;-50
2021/06/16 00:03:40;;;;;;;9.00;5.20;;;19.80;99.90;;;19.26;77.07;100683.78;5066651;28;20035;-51
2021/06/16 00:06:06;;;;;;;6.75;4.60;;;19.80;99.90;;;19.20;77.48;100684.56;5067006;28;20033;-50
2021/06/16 00:08:32;;;;;;;7.72;5.07;;;19.80;99.90;;;19.20;76.90;100681.94;5069760;28;20349;-51
2021/06/16 00:10:58;;;;;;;6.75;4.60;;;19.70;99.90;;;19.17;76.65;100680.50;5052450;28;20062;-48
2021/06/16 00:13:26;;;;;;;14.55;5.30;;;19.70;99.90;;;19.15;76.71;100690.44;5052519;28;20036;-51
2021/06/16 00:15:52;;;;;;;10.20;5.32;;;19.70;99.90;;;19.14;77.06;100685.34;5070614;28;20060;-53
2021/06/16 00:18:18;;;;;;;7.72;5.10;;;19.70;99.90;;;19.12;77.18;100679.44;5070697;28;20384;-47
2021/06/16 00:20:44;;;;;;;10.38;5.45;;;19.60;99.90;;;19.03;77.85;100683.25;5070425;28;20032;-51
2021/06/16 00:23:10;;;;;;;8.75;5.53;;;19.60;99.90;;;18.95;78.35;100691.31;5070495;28;20063;-47
2021/06/16 00:25:36;;;;;;;6.47;5.85;;;19.50;99.90;;;18.88;78.53;100692.13;5070379;28;20492;-50
2021/06/16 00:28:03;;;;;;;8.18;5.53;;;19.40;99.90;;;18.84;78.90;100696.16;5070531;28;20036;-49
2021/06/16 00:30:31;;;;;;;8.48;5.88;;;19.40;99.90;;;18.75;79.52;100696.47;5070193;28;20040;-50
2021/06/16 00:32:57;;;;;;;9.32;5.43;;;19.30;99.90;;;18.71;79.79;100690.75;5051911;28;20033;-49
2021/06/16 00:35:23;;;;;;;7.38;5.78;;;19.30;99.90;;;18.66;80.05;100693.16;5069857;28;20024;-51
2021/06/16 00:37:54;;;;;;;7.88;5.93;;;19.20;99.90;;;18.65;80.03;100690.72;5051825;28;20035;-52
2021/06/16 00:40:26;;;;;;;8.40;6.03;;;19.20;99.90;;;18.68;80.19;100685.06;5069842;28;20055;-49
2021/06/16 00:42:53;;;;;;;9.88;5.78;;;19.20;99.90;;;18.68;79.75;100685.88;5052027;28;20036;-49
2021/06/16 00:45:21;;;;;;;6.38;5.28;;;19.20;99.90;;;18.63;80.28;100688.25;5069886;28;20103;-54
2021/06/16 00:47:47;;;;;;;8.30;6.25;;;19.20;99.90;;;18.52;81.00;100691.38;5051536;28;20065;-54
2021/06/16 00:50:14;;;;;;;9.40;6.25;;;19.10;99.90;;;18.53;80.79;100687.75;5069736;28;20048;-54
2021/06/16 00:52:41;;;;;;;8.05;6.00;;;19.10;99.90;;;18.53;80.80;100693.00;5069667;28;20063;-49
2021/06/16 00:55:08;;;;;;;11.27;6.47;;;19.00;99.90;;;18.53;80.67;100690.38;5051483;28;20178;-46
2021/06/16 00:57:34;;;;;;;6.55;5.57;;;19.10;99.90;;;18.54;80.56;100684.91;5051728;28;20032;-50
2021/06/16 01:00:26;;;;;;;10.25;5.78;;;19.10;99.90;;;18.57;81.21;100684.53;5069630;28;20119;-48
2021/06/16 01:03:21;;;;;;;6.78;6.13;;;19.10;99.90;;;18.57;81.17;100683.72;5069791;28;20064;-48
2021/06/16 01:06:26;;;;;;;10.30;5.80;;;19.10;99.90;;;18.58;80.72;100680.88;5069475;28;20090;-51
2021/06/16 01:09:27;;;;;;;8.55;5.82;;;19.10;99.90;;;18.60;80.86;100685.16;5069395;28;20032;-50
2021/06/16 01:12:12;;;;;;;7.63;5.63;;;19.10;99.90;;;18.58;79.99;100683.53;5062207;28;20094;-53
2021/06/16 01:14:55;;;;;;;7.50;6.10;;;19.10;99.90;;;18.61;80.03;100684.19;5053523;28;20041;-50
2021/06/16 01:17:28;;;;;;;9.43;5.57;;;19.10;99.90;;;18.61;79.95;100687.63;5069099;28;20707;-52
2021/06/16 01:19:57;;;;;;;10.98;5.75;;;19.10;99.90;;;18.61;79.78;100686.81;5069587;28;20405;-49
2021/06/16 01:22:34;;;;;;;9.43;5.60;;;19.10;99.90;;;18.58;79.85;100687.97;5069346;28;20037;-51
2021/06/16 01:25:15;;;;;;;8.50;5.85;;;19.10;99.90;;;18.54;79.88;100690.19;5069573;28;20518;-52
2021/06/16 01:27:43;;;;;;;7.30;6.13;;;19.10;99.90;;;18.50;79.66;100691.56;5069461;28;20074;-50
2021/06/16 01:30:10;;;;;;;9.45;6.07;;;19.10;99.90;;;18.46;80.14;100692.16;5051118;28;20044;-48
2021/06/16 01:32:37;;;;;;;9.57;6.13;;;19.00;99.90;;;18.42;80.21;100686.47;5051115;28;20139;-47
2021/06/16 01:35:04;;;;;;;14.70;7.32;;;19.00;99.90;;;18.39;80.58;100684.19;5051106;28;20045;-49
2021/06/16 01:37:30;;;;;;;8.60;6.25;;;18.90;99.90;;;18.34;80.79;100686.59;5068892;28;20069;-52
2021/06/16 01:39:58;;;;;;;7.95;6.35;;;18.90;99.90;;;18.30;81.02;100680.06;5068714;28;20151;-51
2021/06/16 01:42:27;;;;;;;10.55;6.40;;;18.80;99.90;;;18.28;81.41;100682.06;5051026;28;20517;-50
2021/06/16 01:44:54;;;;;;;9.55;6.75;;;18.80;99.90;;;18.27;81.21;100688.34;5051207;28;20036;-49
2021/06/16 01:47:23;;;;;;;10.18;6.63;;;18.80;99.90;;;18.22;81.75;100677.53;5068782;28;20120;-49
2021/06/16 01:49:54;;;;;;;8.43;6.95;;;18.80;99.90;;;18.21;82.02;100679.38;5030552;28;20122;-48
2021/06/16 01:52:23;;;;;;;9.88;6.47;;;18.80;99.90;;;18.22;81.93;100680.19;5047108;28;20036;-51
2021/06/16 01:54:49;;;;;;;11.65;6.95;;;18.70;99.90;;;18.19;81.73;100676.09;5047277;28;20550;-52
2021/06/16 01:57:17;;;;;;;9.63;6.78;;;18.70;99.90;;;18.17;82.37;100686.03;5047240;28;20048;-47
2021/06/16 01:59:45;;;;;;;14.88;6.43;;;18.70;99.90;;;18.16;82.35;100679.13;5048565;28;20033;-51
2021/06/16 02:02:11;;;;;;;9.52;6.43;;;18.70;99.90;;;18.12;82.70;100680.50;5047400;28;20033;-50
2021/06/16 02:04:38;;;;;;;9.23;6.45;;;18.70;99.90;;;18.11;82.31;100678.84;5048779;28;20029;-47
2021/06/16 02:07:17;;;;;;;11.82;6.38;;;18.60;99.90;;;18.11;82.75;100672.78;5048399;28;20469;-53
2021/06/16 02:09:46;;;;;;;8.43;6.00;;;18.60;99.90;;;18.09;82.34;100670.31;5048479;28;20071;-52
2021/06/16 02:12:15;;;;;;;9.43;7.13;;;18.60;99.90;;;18.08;82.06;100666.06;5030488;28;20140;-54
2021/06/16 02:14:55;;;;;;;10.52;6.20;;;18.60;99.90;;;18.08;82.75;100673.97;5046939;28;20051;-47
2021/06/16 02:17:24;;;;;;;8.73;7.03;;;18.60;99.90;;;18.07;82.13;100667.06;5046851;28;20056;-53
2021/06/16 02:19:54;;;;;;;9.82;6.18;;;18.60;99.90;;;18.08;82.33;100670.50;5048265;28;20507;-46
2021/06/16 02:22:23;;;;;;;12.07;7.57;;;18.60;99.90;;;18.05;82.49;100674.34;5048322;28;20032;-52
2021/06/16 02:24:49;;;;;;;13.88;6.75;;;18.50;99.90;;;18.03;82.97;100678.16;5047072;28;20033;-51
2021/06/16 02:27:15;;;;;;;10.13;7.68;;;18.60;99.90;;;17.97;83.48;100671.81;5046728;28;20048;-52
2021/06/16 02:29:41;;;;;;;9.88;7.82;;;18.50;99.90;;;17.96;83.96;100670.19;5046988;28;20438;-51
2021/06/16 02:32:08;;;;;;;9.70;6.93;;;18.50;99.90;;;17.94;84.24;100666.94;5048137;28;20558;-52
2021/06/16 02:34:34;;;;;;;9.18;6.85;;;18.50;99.90;;;17.95;84.20;100665.94;5047979;28;20045;-51
2021/06/16 02:37:06;;;;;;;7.88;6.75;;;18.40;99.90;;;17.93;84.49;100673.22;5048164;28;20085;-49
2021/06/16 02:39:53;;;;;;;11.65;7.38;;;18.40;99.90;;;17.93;84.78;100667.94;5047886;28;20044;-51
2021/06/16 02:42:20;;;;;;;8.48;7.07;;;18.40;99.90;;;17.93;84.22;100669.78;5299768;22;20060;-57
2021/06/16 02:44:47;;;;;;;11.52;7.15;;;18.40;99.90;;;17.93;84.31;100670.59;5067836;28;20049;-58
2021/06/16 02:47:15;;;;;;;11.27;7.45;;;18.40;99.90;;;17.90;83.94;100666.50;5049802;28;20055;-60
2021/06/16 02:49:50;;;;;;;10.85;7.53;;;18.40;99.90;;;17.89;84.35;100672.78;5066322;28;20523;-59
2021/06/16 02:52:19;;;;;;;10.00;7.25;;;18.40;99.90;;;17.89;84.13;100666.69;5066319;28;20098;-60
2021/06/16 02:55:08;;;;;;;8.13;7.05;;;18.40;99.90;;;17.92;83.68;100662.88;5067675;28;20419;-60
2021/06/16 02:57:37;;;;;;;8.13;7.20;;;18.40;99.90;;;17.94;83.74;100671.41;5066810;28;20045;-61
2021/06/16 03:00:10;;;;;;;7.82;6.72;;;18.40;99.90;;;17.96;83.46;100669.41;5067610;28;20087;-59
2021/06/16 03:02:39;;;;;;;6.75;6.10;;;18.40;99.90;;;17.97;82.70;100674.44;5067536;28;20031;-54
2021/06/16 03:05:07;;;;;;;6.65;5.95;;;18.40;99.90;;;18.01;82.08;100678.34;5049914;28;20036;-56
2021/06/16 03:07:34;;;;;;;6.82;5.50;;;18.50;99.90;;;18.08;81.35;100679.22;5066104;28;20039;-59
2021/06/16 03:10:01;;;;;;;5.90;5.40;;;18.50;99.90;;;18.10;80.92;100677.22;5067484;28;20424;-60
2021/06/16 03:12:28;;;;;;;8.60;6.13;;;18.60;99.90;;;18.12;80.87;100669.94;5067311;28;20337;-58
2021/06/16 03:14:55;;;;;;;5.75;5.00;;;18.60;99.90;;;18.14;80.77;100673.22;5067527;28;20047;-58
2021/06/16 03:17:22;;;;;;;7.88;5.47;;;18.60;99.90;;;18.11;81.06;100673.59;5067544;28;20032;-59
2021/06/16 03:19:48;;;;;;;9.93;6.43;;;18.60;99.90;;;18.11;81.34;100680.69;5067206;28;20056;-61
2021/06/16 03:22:16;;;;;;;10.30;6.30;;;18.60;99.90;;;18.15;81.34;100679.31;5066055;28;20281;-53
2021/06/16 03:24:46;;;;;;;9.68;5.88;;;18.60;99.90;;;18.20;81.35;100676.91;5065781;28;20032;-57
2021/06/16 03:27:13;;;;;;;9.80;6.55;;;18.70;99.90;;;18.21;81.17;100681.19;5082681;28;20043;-57
2021/06/16 03:29:40;;;;;;;7.97;7.18;;;18.70;99.90;;;18.21;81.18;100691.72;5065618;28;20063;-61
2021/06/16 03:32:08;;;;;;;9.35;6.43;;;18.70;99.90;;;18.21;81.62;100687.28;5065775;28;20089;-58
2021/06/16 03:34:36;;;;;;;10.68;6.88;;;18.80;99.90;;;18.23;81.42;100690.53;5067018;28;20143;-59
2021/06/16 03:37:04;;;;;;;7.97;6.13;;;18.70;99.90;;;18.23;81.26;100687.91;5082391;28;20028;-57
2021/06/16 03:39:32;;;;;;;11.18;6.53;;;18.80;99.90;;;18.23;81.59;100687.09;5049241;28;20036;-56
2021/06/16 03:42:00;;;;;;;8.38;6.47;;;18.80;99.90;;;18.23;81.59;100693.19;5067981;28;20033;-58
2021/06/16 03:44:26;;;;;;;11.18;6.25;;;18.80;99.90;;;18.22;81.51;100688.91;5070854;28;20047;-62
2021/06/16 03:46:53;;;;;;;8.05;6.72;;;18.80;99.90;;;18.23;81.67;100692.38;5070924;28;20448;-55
2021/06/16 03:49:20;;;;;;;7.03;6.35;;;18.80;99.90;;;18.23;81.65;100687.91;5069298;28;20164;-61
2021/06/16 03:51:47;;;;;;;8.77;6.32;;;18.80;99.90;;;18.28;81.56;100705.00;5069582;28;20130;-61
2021/06/16 03:54:15;;;;;;;8.73;6.22;;;18.80;99.90;;;18.33;80.94;100699.97;5069460;28;20483;-58
2021/06/16 03:56:46;;;;;;;9.35;5.40;;;18.90;99.90;;;18.35;80.88;100695.31;5069627;28;20028;-55
2021/06/16 03:59:15;;;;;;;7.35;5.70;;;18.90;99.90;;;18.40;80.45;100696.38;5069457;28;20050;-57
2021/06/16 04:01:41;;;;;;;5.05;4.53;;;18.90;99.90;;;18.47;79.75;100688.50;5069124;28;20048;-57
2021/06/16 04:04:09;;;;;;;9.40;5.65;;;19.00;99.90;;;18.63;78.82;100687.44;5070920;28;20277;-59
2021/06/16 04:06:40;;;;;;;7.97;5.72;;;19.10;99.90;;;18.89;77.92;100700.84;5070761;28;20040;-59
2021/06/16 04:09:08;;;;;;;6.15;4.68;;;19.40;99.90;;;19.11;76.93;100688.38;5070727;28;20064;-56
2021/06/16 04:11:36;;;;;;;7.55;5.20;;;19.70;99.90;;;19.10;76.94;100689.38;5070505;28;20419;-59
2021/06/16 04:14:02;;;;;;;7.55;5.22;;;19.70;99.90;;;19.19;76.66;100688.22;5069132;28;20102;-62
2021/06/16 04:16:28;;;;;;;8.60;5.18;;;19.80;99.90;;;19.77;75.00;100692.16;5070728;28;20044;-59
2021/06/16 04:18:55;;;;;;;8.48;4.90;;;20.30;99.90;;;20.43;72.67;100686.97;5071018;28;20254;-58
2021/06/16 04:21:22;;;;;;;6.18;5.30;;;21.20;99.90;;;20.59;72.11;100691.06;5070434;28;20119;-57
2021/06/16 04:23:50;;;;;;;8.07;5.35;;;21.60;99.90;;;20.06;74.09;100690.97;5070281;28;20414;-60
2021/06/16 04:26:18;;;;;;;7.53;5.57;;;21.10;99.90;;;19.99;74.37;100694.63;5070285;28;20145;-57
2021/06/16 04:28:44;;;;;;;8.43;5.13;;;20.90;99.90;;;19.74;75.47;100691.72;5070043;28;20032;-58
2021/06/16 04:31:11;;;;;;;13.20;5.78;;;20.70;99.90;;;19.62;75.84;100694.13;5070273;28;20079;-57
2021/06/16 04:33:37;;;;;;;8.40;6.18;;;20.40;99.90;;;19.57;76.04;100693.91;5070266;28;20427;-57
2021/06/16 04:36:06;;;;;;;9.40;5.97;;;20.30;99.90;;;19.54;76.20;100697.75;5085584;28;20033;-59
2021/06/16 04:38:32;;;;;;;6.80;5.78;;;20.40;99.90;;;19.28;77.31;100696.81;5069899;28;20037;-62
2021/06/16 04:40:58;;;;;;;6.90;5.75;;;20.20;99.90;;;19.19;77.56;100698.78;5070214;28;20070;-57
2021/06/16 04:43:25;;;;;;;7.55;5.38;;;20.00;99.90;;;19.15;77.77;100705.47;5069641;28;20420;-58
2021/06/16 04:45:51;;;;;;;8.80;5.93;;;19.90;99.90;;;19.13;77.64;100699.56;5069975;28;20035;-60
2021/06/16 04:48:18;;;;;;;7.65;5.63;;;19.80;99.90;;;19.15;77.43;100700.19;5068499;28;20082;-58
2021/06/16 04:50:44;;;;;;;5.85;4.47;;;19.90;99.90;;;19.11;76.86;100705.03;5069908;28;20032;-60
2021/06/16 04:53:10;;;;;;;4.63;4.05;;;19.80;99.90;;;19.22;76.03;100698.41;5068895;28;20043;-62
2021/06/16 04:55:37;;;;;;;6.75;4.75;;;19.80;99.90;;;19.30;75.45;100690.31;5069753;28;20036;-58
2021/06/16 04:58:03;;;;;;;5.57;3.97;;;19.90;99.90;;;19.47;74.73;100694.22;5069986;28;20036;-61
2021/06/16 05:00:29;;;;;;;8.10;4.47;;;20.10;99.90;;;19.75;73.64;100696.00;5069692;28;20098;-59
2021/06/16 05:02:59;;;;;;;8.80;4.60;;;20.40;99.90;;;19.92;72.62;100699.91;5069855;28;20341;-60
2021/06/16 05:05:26;;;;;;;8.50;4.00;;;20.60;99.90;;;19.98;72.61;100696.47;5068177;28;20024;-56
2021/06/16 05:07:52;;;;;;;8.05;4.82;;;20.70;99.90;;;20.09;72.42;100705.63;5069895;28;20119;-57
2021/06/16 05:10:19;;;;;;;6.70;4.25;;;20.90;99.90;;;20.26;71.92;100698.16;5069229;28;20034;-60
2021/06/16 05:12:45;;;;;;;7.63;4.97;;;21.00;99.90;;;20.24;72.09;100697.53;5069416;28;20115;-58
2021/06/16 05:15:15;;;;;;;6.80;4.63;;;21.00;99.90;;;20.19;72.46;100691.00;5069651;28;20107;-55
2021/06/16 05:17:42;;;;;;;10.63;5.10;;;21.10;99.90;;;20.48;71.81;100695.13;5084771;28;20032;-59
2021/06/16 05:20:13;;;;;;;7.80;5.03;;;21.30;99.90;;;20.56;71.54;100686.16;5069261;28;20025;-60
2021/06/16 05:22:40;;;;;;;6.25;4.53;;;21.50;99.90;;;20.62;71.72;100701.22;5069574;28;20040;-57
2021/06/16 05:25:10;;;;;;;9.48;4.75;;;21.70;99.90;;;21.12;70.54;100697.06;5069305;28;20560;-57
2021/06/16 05:27:37;;;;;;;9.20;5.40;;;22.10;99.90;;;21.25;70.14;100706.06;5069406;28;20037;-58
2021/06/16 05:30:06;;;;;;;9.25;5.47;;;22.40;99.90;;;21.42;69.30;100697.41;5069025;28;20036;-57
2021/06/16 05:32:32;;;;;;;6.50;4.78;;;22.60;99.90;;;22.42;66.43;100700.31;5069139;28;20036;-58
2021/06/16 05:34:58;;;;;;;8.00;4.82;;;23.40;99.90;;;22.73;64.87;100699.44;5069198;28;20093;-57
2021/06/16 05:37:24;;;;;;;8.90;4.57;;;24.10;99.90;;;22.57;65.68;100708.78;5069061;28;20036;-55
2021/06/16 05:39:50;;;;;;;7.78;4.53;;;24.10;99.90;;;22.36;66.05;100702.00;5068862;28;20028;-55
2021/06/16 05:42:16;;;;;;;16.65;4.80;;;23.90;99.90;;;22.10;66.43;100707.50;5068516;28;20218;-61
2021/06/16 05:44:42;;;;;;;10.57;4.35;;;23.50;99.90;;;21.92;67.27;100696.75;5068958;28;20388;-60
2021/06/16 05:47:08;;;;;;;10.13;4.18;;;23.20;99.90;;;22.25;65.71;100699.22;5068788;28;20044;-59
2021/06/16 05:49:34;;;;;;;7.53;3.83;;;23.50;99.90;;;22.80;64.16;100694.91;5068546;28;20029;-55
2021/06/16 05:52:00;;;;;;;4.60;4.00;;;24.20;99.90;;;22.90;63.21;100702.38;5068774;28;20116;-53
2021/06/16 05:54:27;;;;;;;12.43;4.15;;;24.40;98.60;;;23.04;62.94;100701.22;5068550;28;20120;-57
2021/06/16 05:56:53;;;;;;;5.40;3.80;;;24.30;99.40;;;23.40;62.18;100695.88;5068466;28;20064;-58
2021/06/16 05:59:19;;;;;;;5.35;3.88;;;24.60;99.10;;;23.98;60.41;100697.19;5068495;28;20043;-54
2021/06/16 06:01:45;;;;;;;5.93;3.92;;;25.50;97.20;;;24.24;59.45;100694.13;5068450;28;20036;-60
2021/06/16 06:04:11;;;;;;;7.55;3.88;;;26.00;95.30;;;24.36;58.60;100699.50;5068362;28;20028;-54
2021/06/16 06:06:37;;;;;;;7.45;3.40;;;25.80;94.50;;;23.83;60.14;100694.94;5066598;28;20039;-59
2021/06/16 06:09:08;;;;;;;3.78;3.47;;;25.40;95.10;;;23.58;60.75;100697.75;5068242;28;20561;-54
2021/06/16 06:11:34;;;;;;;6.35;3.75;;;25.10;94.90;;;24.28;58.32;100692.66;5068132;28;20028;-53
2021/06/16 06:14:05;;;;;;;4.80;3.33;;;25.70;94.40;;;24.96;55.82;100694.00;5083473;28;20499;-59
2021/06/16 06:16:32;;;;;;;5.22;2.60;;;26.80;91.30;;;24.43;58.25;100694.91;5068008;28;20185;-60
2021/06/16 06:18:57;;;;;;;5.03;3.17;;;26.20;92.20;;;24.70;57.14;100696.06;5067858;28;20048;-53
2021/06/16 06:21:29;;;;;;;7.85;2.88;;;26.50;91.40;;;24.79;56.56;100688.53;5068117;28;20377;-57
2021/06/16 06:23:56;;;;;;;4.32;2.88;;;26.50;91.10;;;25.06;55.90;100700.34;5050887;28;20029;-57
2021/06/16 06:26:22;;;;;;;7.03;2.83;;;26.90;89.80;;;25.19;56.01;100699.28;5068604;28;20376;-57
2021/06/16 06:28:48;;;;;;;4.70;3.58;;;27.10;89.40;;;25.21;55.69;100696.38;5068054;28;20052;-59
2021/06/16 06:31:14;;;;;;;4.30;2.25;;;27.40;87.40;;;25.15;55.38;100703.47;5068115;28;20033;-60
2021/06/16 06:33:40;;;;;;;4.20;3.03;;;27.30;86.00;;;25.45;55.04;100704.09;5067779;28;20089;-55
2021/06/16 06:36:06;;;;;;;4.22;2.65;;;27.70;85.60;;;26.00;53.54;100697.38;5068464;28;20086;-55
2021/06/16 06:38:32;;;;;;;6.55;3.00;;;28.20;82.30;;;27.27;50.84;100694.78;5068327;28;20047;-59
2021/06/16 06:40:58;;;;;;;5.53;3.00;;;29.30;80.00;;;27.16;51.13;100682.34;5068588;28;20037;-58
2021/06/16 06:43:24;;;;;;;4.63;2.92;;;29.80;76.50;;;26.53;51.63;100688.94;5067638;28;20431;-60
2021/06/16 06:45:50;;;;;;;4.38;2.92;;;29.50;74.60;;;27.06;50.54;100683.03;5068063;28;20042;-62
2021/06/16 06:48:16;;;;;;;5.90;2.97;;;29.50;74.10;;;26.69;51.74;100692.63;5067790;28;20039;-57
2021/06/16 06:50:42;;;;;;;5.75;2.60;;;29.20;74.70;;;26.41;52.14;100688.22;5067816;28;20037;-58
2021/06/16 06:53:08;;;;;;;5.05;2.78;;;28.80;75.10;;;26.31;52.54;100685.38;5067900;28;20043;-58
2021/06/16 06:55:34;;;;;;;4.03;2.70;;;28.60;75.90;;;27.95;48.63;100688.03;5067770;28;20040;-58
2021/06/16 06:58:00;;;;;;;5.90;2.65;;;30.10;72.60;;;28.50;47.35;100675.38;5067895;28;20047;-63
2021/06/16 07:00:26;;;;;;;5.40;3.08;;;31.10;69.10;;;28.91;46.11;100681.81;5067914;28;20032;-59
2021/06/16 07:02:52;;;;;;;3.10;2.30;;;31.70;66.00;;;28.83;45.74;100675.06;5067818;28;20641;-58
2021/06/16 07:05:18;;;;;;;6.30;2.65;;;31.80;64.90;;;29.29;44.94;100684.13;5067983;28;20064;-55
2021/06/16 07:07:44;;;;;;;7.68;2.80;;;31.90;64.20;;;29.25;44.38;100679.56;5067974;28;20052;-60
2021/06/16 07:10:12;;;;;;;6.03;3.08;;;31.80;62.60;;;27.46;47.86;100673.84;5067806;28;20420;-51
2021/06/16 07:12:39;;;;;;;6.18;3.22;;;29.30;68.80;;;26.82;50.07;100680.81;5067464;28;20024;-53
2021/06/16 07:15:07;;;;;;;4.38;3.05;;;28.00;73.10;;;26.10;52.14;100684.19;5082905;28;20231;-58
2021/06/16 07:17:34;;;;;;;8.98;2.90;;;27.00;76.40;;;25.87;52.96;100685.16;5067105;28;20553;-59
2021/06/16 07:19:59;;;;;;;5.65;3.67;;;26.80;78.70;;;26.03;52.81;100684.34;5082812;28;20590;-58
2021/06/16 07:22:25;;;;;;;5.35;2.78;;;26.80;79.90;;;26.21;52.49;100674.50;5067324;28;20403;-60
2021/06/16 07:24:52;;;;;;;12.75;3.53;;;27.00;79.60;;;26.46;51.83;100677.63;5067348;28;20044;-57
2021/06/16 07:27:17;;;;;;;6.10;3.45;;;27.10;80.00;;;26.74;51.05;100672.16;5067874;28;20107;-59
2021/06/16 07:29:44;;;;;;;6.97;3.15;;;27.40;79.10;;;26.71;50.85;100669.97;5067332;28;20429;-58
2021/06/16 07:32:09;;;;;;;5.93;2.97;;;27.60;78.00;;;27.02;50.37;100670.38;5067402;28;20442;-58
2021/06/16 07:34:35;;;;;;;5.95;2.97;;;27.80;78.00;;;27.11;50.29;100674.25;5067382;28;20060;-60
2021/06/16 07:37:02;;;;;;;10.40;3.53;;;27.90;77.80;;;27.10;49.99;100675.31;5067464;28;20146;-59
2021/06/16 07:39:28;;;;;;;7.95;4.07;;;27.70;77.60;;;27.11;49.81;100676.94;5067695;28;20124;-57
2021/06/16 07:41:54;;;;;;;5.93;3.03;;;27.70;78.10;;;26.91;50.67;100672.13;5067455;28;20036;-62
2021/06/16 07:44:21;;;;;;;16.52;3.08;;;27.40;79.70;;;26.81;51.44;100663.16;5067299;28;20409;-56
2021/06/16 07:46:47;;;;;;;6.50;3.40;;;27.30;80.30;;;27.19;50.42;100665.81;5067713;28;20421;-61
2021/06/16 07:49:13;;;;;;;10.05;2.85;;;27.50;80.50;;;27.36;50.05;100655.84;5067439;28;20064;-58
2021/06/16 07:51:39;;;;;;;6.75;3.00;;;27.70;80.00;;;27.17;50.35;100667.09;5083279;28;20063;-60
2021/06/16 07:54:11;;;;;;;4.40;3.05;;;27.80;79.30;;;27.20;50.55;100661.25;5067651;28;20025;-57
2021/06/16 07:56:41;;;;;;;4.45;2.70;;;27.70;80.20;;;27.10;50.53;100672.63;5067366;28;20059;-61
2021/06/16 07:59:08;;;;;;;4.25;2.72;;;27.60;79.70;;;26.96;51.21;100666.03;5067744;28;20540;-57
2021/06/16 08:01:34;;;;;;;9.80;3.33;;;27.50;80.60;;;26.81;50.88;100669.31;5067670;28;20028;-60
2021/06/16 08:04:01;;;;;;;9.75;3.15;;;27.40;79.90;;;26.46;51.61;100672.28;5082439;28;20037;-58
2021/06/16 08:06:27;;;;;;;4.65;2.85;;;27.10;80.40;;;26.43;51.18;100670.09;5067148;28;20579;-62
2021/06/16 08:08:54;;;;;;;6.13;2.63;;;26.90;80.40;;;26.46;51.80;100666.13;5067000;28;20105;-61
2021/06/16 08:11:22;;;;;;;7.43;3.10;;;26.80;81.50;;;27.10;49.90;100661.94;5067151;28;20496;-64
2021/06/16 08:13:48;;;;;;;12.43;3.40;;;27.20;80.90;;;27.68;48.65;100658.59;5067108;28;20037;-62
2021/06/16 08:16:17;;;;;;;8.80;2.53;;;27.80;79.80;;;28.09;48.40;100657.09;5067145;28;20518;-61
2021/06/16 08:18:47;;;;;;;6.97;3.00;;;28.20;79.30;;;27.88;48.88;100658.00;5082474;28;20048;-56
2021/06/16 08:21:15;;;;;;;8.15;3.38;;;28.30;78.50;;;28.12;48.41;100657.66;5067012;28;20035;-61
2021/06/16 08:23:43;;;;;;;6.93;3.50;;;28.30;79.00;;;27.87;49.41;100659.06;5082362;28;20053;-61
2021/06/16 08:26:10;;;;;;;5.35;2.85;;;28.40;79.00;;;28.02;49.27;100661.84;5067258;28;20084;-58
2021/06/16 08:28:37;;;;;;;7.32;3.10;;;28.40;79.50;;;28.04;49.27;100653.56;5068538;28;20029;-59
2021/06/16 08:31:04;;;;;;;6.38;3.10;;;28.40;79.80;;;28.16;49.20;100650.72;5070595;28;20284;-60
2021/06/16 08:33:30;;;;;;;6.38;3.33;;;28.40;79.50;;;27.97;49.83;100653.78;5071087;28;20074;-60
2021/06/16 08:35:56;;;;;;;3.40;2.63;;;28.40;79.80;;;28.25;49.17;100652.72;5070623;28;20067;-59
2021/06/16 08:38:22;;;;;;;6.93;3.55;;;28.40;80.20;;;28.32;48.98;100647.94;5068763;28;20028;-59
2021/06/16 08:40:48;;;;;;;5.10;2.65;;;28.60;80.10;;;28.41;48.82;100650.91;5067268;28;20029;-61
2021/06/16 08:43:15;;;;;;;4.43;2.53;;;28.80;79.20;;;29.09;47.22;100651.84;5090379;22;20052;-59
2021/06/16 08:45:43;;;;;;;9.02;2.72;;;29.20;78.90;;;29.26;46.89;100652.47;5091082;28;20538;-60
2021/06/16 08:48:10;;;;;;;6.32;2.72;;;29.50;77.40;;;29.22;46.43;100650.56;5090873;28;20106;-55
2021/06/16 08:50:37;;;;;;;4.57;2.72;;;29.70;75.50;;;28.86;47.47;100649.59;5090828;28;20390;-61
2021/06/16 08:53:04;;;;;;;8.15;2.30;;;29.40;75.60;;;29.17;45.99;100650.53;5090477;28;20043;-62
2021/06/16 08:55:30;;;;;;;5.20;2.35;;;29.40;75.10;;;29.27;45.44;100647.91;5090404;28;20031;-63
2021/06/16 08:57:56;;;;;;;6.15;1.80;;;29.50;74.00;;;29.71;44.04;100648.28;5090563;28;20537;-58
2021/06/16 09:00:23;;;;;;;2.35;1.92;;;29.80;72.90;;;29.23;43.19;100649.50;5090573;28;20120;-61
2021/06/16 09:02:50;;;;;;;3.55;2.00;;;29.70;68.40;;;29.20;43.38;100658.88;5090799;28;20055;-57
2021/06/16 09:05:18;;;;;;;3.08;1.58;;;29.60;70.00;;;29.48;42.46;100654.13;5090689;28;20035;-60
2021/06/16 09:07:45;;;;;;;2.58;1.73;;;29.70;69.20;;;29.68;40.41;100654.19;5090811;28;20059;-61
2021/06/16 09:10:20;;;;;;;5.10;2.00;;;30.10;66.70;;;29.66;39.83;100656.34;5090784;28;20032;-59
2021/06/16 09:12:59;;;;;;;3.72;1.77;;;30.10;64.40;;;29.79;40.98;100653.09;5090483;28;20040;-58
2021/06/16 09:15:30;;;;;;;2.67;1.55;;;30.10;66.40;;;29.81;40.63;100656.34;5090649;28;20027;-55
2021/06/16 09:18:09;;;;;;;4.15;1.85;;;30.10;65.90;;;29.64;40.77;100653.09;5090904;28;20400;-58
2021/06/16 09:20:43;;;;;;;5.78;1.70;;;30.00;65.30;;;30.20;39.89;100653.16;5090684;28;20381;-60
2021/06/16 09:23:29;;;;;;;5.20;1.90;;;30.20;66.00;;;30.21;37.82;100646.72;5089327;28;20044;-59
2021/06/16 09:26:17;;;;;;;4.88;2.03;;;30.40;63.40;;;30.50;37.30;100639.66;5090572;28;20521;-58
2021/06/16 09:28:46;;;;;;;3.22;1.55;;;30.70;61.30;;;30.14;39.85;100651.56;5088474;28;20151;-58
2021/06/16 09:31:14;;;;;;;1.92;1.50;;;30.50;63.20;;;30.29;39.35;100641.56;5089897;28;20036;-60
2021/06/16 09:33:41;;;;;;;3.40;1.42;;;30.50;63.30;;;30.61;38.21;100646.66;5089958;28;20024;-57
2021/06/16 09:36:22;;;;;;;3.22;1.70;;;30.80;61.70;;;30.16;38.18;100644.03;5089531;28;20115;-60
2021/06/16 09:38:50;;;;;;;7.75;2.22;;;30.50;61.00;;;30.30;38.95;100645.06;5089372;28;20028;-54
2021/06/16 09:41:19;;;;;;;4.35;1.88;;;30.60;61.40;;;30.22;38.73;100642.94;5089530;28;20519;-61
2021/06/16 09:43:47;;;;;;;4.53;1.77;;;30.50;61.80;;;30.22;38.47;100642.94;5089128;28;20046;-60
2021/06/16 09:46:14;;;;;;;3.53;2.10;;;30.50;61.70;;;30.86;38.40;100640.38;5088074;28;20122;-60
2021/06/16 09:48:41;;;;;;;2.70;1.40;;;30.90;62.30;;;31.37;37.56;100644.75;5089375;28;20032;-62
2021/06/16 09:51:33;;;;;;;3.85;1.58;;;31.40;62.00;;;31.08;37.50;100634.66;5089551;28;20035;-60
2021/06/16 09:54:14;;;;;;;8.00;2.17;;;31.60;60.70;;;31.40;38.25;100636.13;5089332;28;20356;-64
2021/06/16 09:57:04;;;;;;;4.45;1.73;;;31.60;62.30;;;31.37;37.56;100633.97;5087477;28;20046;-63
2021/06/16 09:59:42;;;;;;;5.00;1.92;;;31.70;61.20;;;31.35;36.63;100636.94;5088640;28;20039;-61
2021/06/16 10:02:19;;;;;;;2.63;1.80;;;31.70;60.20;;;31.46;36.74;100624.22;5087555;28;20036;-60
2021/06/16 10:05:05;;;;;;;6.80;2.00;;;31.80;59.40;;;31.63;37.55;100630.06;5089481;28;20036;-57
2021/06/16 10:07:34;;;;;;;4.28;1.35;;;31.80;61.40;;;31.39;38.44;100634.50;5089344;28;20186;-60
2021/06/16 10:10:11;;;;;;;5.38;1.55;;;31.60;61.70;;;31.69;37.47;100628.94;5088864;28;20457;-59
2021/06/16 10:12:39;;;;;;;4.30;1.90;;;31.90;60.10;;;31.24;38.34;100635.38;5088915;28;20032;-60
2021/06/16 10:15:10;;;;;;;3.95;1.73;;;31.60;60.90;;;31.18;38.71;100633.84;5088857;28;20074;-61
2021/06/16 10:17:37;;;;;;;5.72;1.85;;;31.60;61.40;;;30.87;38.42;100633.94;5088993;28;20059;-62
2021/06/16 10:20:06;;;;;;;3.38;1.70;;;31.30;59.90;;;31.31;38.26;100638.59;5088957;28;20054;-61